createdAt,value
2023-01-11T00:00:31.086Z,7.43
2023-01-11T00:03:00.319Z,7.68
2023-01-11T00:05:29.124Z,10.77
2023-01-11T00:07:58.849Z,8.65
2023-01-11T00:10:27.315Z,8.77
2023-01-11T00:12:57.430Z,8.65
2023-01-11T00:15:25.942Z,9.00
2023-01-11T00:17:54.444Z,9.20
2023-01-11T00:20:23.189Z,9.15
2023-01-11T00:22:51.730Z,8.30
2023-01-11T00:25:20.489Z,8.90
2023-01-11T00:27:49.756Z,9.20
2023-01-11T00:30:20.574Z,8.98
2023-01-11T00:32:49.190Z,8.65
2023-01-11T00:35:17.958Z,6.82
2023-01-11T00:37:46.375Z,8.65
2023-01-11T00:40:15.452Z,7.88
2023-01-11T00:43:01.344Z,8.73
2023-01-11T00:45:49.649Z,7.72
2023-01-11T00:48:18.247Z,8.65
2023-01-11T00:50:46.795Z,6.07
2023-01-11T00:53:15.740Z,6.63
2023-01-11T00:55:44.360Z,7.20
2023-01-11T00:58:12.878Z,8.27
2023-01-11T01:00:42.761Z,5.43
2023-01-11T01:03:11.361Z,5.32
2023-01-11T01:05:40.196Z,6.95
2023-01-11T01:08:08.749Z,6.80
2023-01-11T01:10:37.251Z,5.55
2023-01-11T01:13:23.196Z,5.00
2023-01-11T01:15:58.303Z,5.45
2023-01-11T01:18:26.962Z,5.80
2023-01-11T01:20:55.441Z,5.43
2023-01-11T01:23:24.094Z,4.60
2023-01-11T01:25:52.701Z,4.60
2023-01-11T01:28:22.410Z,6.88
2023-01-11T01:30:55.444Z,7.45
2023-01-11T01:33:24.642Z,5.90
2023-01-11T01:35:53.168Z,5.15
2023-01-11T01:38:21.612Z,5.45
2023-01-11T01:40:50.175Z,5.40
2023-01-11T01:43:19.558Z,5.30
2023-01-11T01:45:50.176Z,4.47
2023-01-11T01:48:25.634Z,4.50
2023-01-11T01:50:57.230Z,3.72
2023-01-11T01:53:31.950Z,3.72
2023-01-11T01:56:03.702Z,3.88
2023-01-11T01:58:40.399Z,4.22
2023-01-11T02:01:22.954Z,5.03
2023-01-11T02:03:54.537Z,4.32
2023-01-11T02:06:24.857Z,4.55
2023-01-11T02:09:01.466Z,4.50
2023-01-11T02:11:32.896Z,3.75
2023-01-11T02:14:05.220Z,3.42
2023-01-11T02:16:34.014Z,3.75
2023-01-11T02:19:04.996Z,5.78
2023-01-11T02:21:44.797Z,3.28
2023-01-11T02:24:39.059Z,3.20
2023-01-11T02:27:30.262Z,3.92
2023-01-11T02:30:16.010Z,3.38
2023-01-11T02:32:57.993Z,4.20
2023-01-11T02:35:37.170Z,6.22
2023-01-11T02:38:11.965Z,4.95
2023-01-11T02:40:52.317Z,5.05
2023-01-11T02:43:46.260Z,4.27
2023-01-11T02:46:23.588Z,5.70
2023-01-11T02:49:00.506Z,6.60
2023-01-11T02:51:36.885Z,5.57
2023-01-11T02:54:08.646Z,5.20
2023-01-11T02:56:40.426Z,5.03
2023-01-11T02:59:12.299Z,4.43
2023-01-11T03:01:51.090Z,5.70
2023-01-11T03:04:28.101Z,5.05
2023-01-11T03:07:12.452Z,4.47
2023-01-11T03:09:52.693Z,5.47
2023-01-11T03:12:55.098Z,6.13
2023-01-11T03:15:48.489Z,5.13
2023-01-11T03:18:31.719Z,4.80
2023-01-11T03:21:09.021Z,5.10
2023-01-11T03:23:47.760Z,8.52
2023-01-11T03:26:25.439Z,5.10
2023-01-11T03:29:02.225Z,4.60
2023-01-11T03:31:36.412Z,5.65
2023-01-11T03:34:16.167Z,5.55
2023-01-11T03:36:53.883Z,4.82
2023-01-11T03:39:28.675Z,5.47
2023-01-11T03:42:01.585Z,4.50
2023-01-11T03:44:35.256Z,4.45
2023-01-11T03:47:08.344Z,4.75
2023-01-11T03:49:42.811Z,7.10
2023-01-11T03:52:16.014Z,3.70
2023-01-11T03:54:45.784Z,5.55
2023-01-11T03:57:20.104Z,4.93
2023-01-11T03:59:49.932Z,5.15
2023-01-11T04:02:20.267Z,6.35
2023-01-11T04:04:50.687Z,6.82
2023-01-11T04:07:19.734Z,8.10
2023-01-11T04:09:48.705Z,6.20
2023-01-11T04:12:18.168Z,4.70
2023-01-11T04:14:47.103Z,6.13
2023-01-11T04:17:15.883Z,8.05
2023-01-11T04:19:45.003Z,5.50
2023-01-11T04:22:15.592Z,5.65
2023-01-11T04:24:44.441Z,7.30
2023-01-11T04:27:13.864Z,6.22
2023-01-11T04:29:43.184Z,6.63
2023-01-11T04:32:12.067Z,5.55
2023-01-11T04:34:41.006Z,6.30
2023-01-11T04:37:09.910Z,7.05
2023-01-11T04:39:40.140Z,8.00
2023-01-11T04:42:19.925Z,7.90
2023-01-11T04:44:49.450Z,6.78
2023-01-11T04:47:19.203Z,7.85
2023-01-11T04:49:48.271Z,7.57
2023-01-11T04:52:19.061Z,6.80
2023-01-11T04:54:49.562Z,7.85
2023-01-11T04:57:18.624Z,7.90
2023-01-11T04:59:47.876Z,6.97
2023-01-11T05:02:17.242Z,7.35
2023-01-11T05:04:46.304Z,6.68
2023-01-11T05:07:15.141Z,8.77
2023-01-11T05:09:44.245Z,7.20
2023-01-11T05:12:14.679Z,6.93
2023-01-11T05:14:43.495Z,6.73
2023-01-11T05:17:15.602Z,7.10
2023-01-11T05:19:44.768Z,7.35
2023-01-11T05:22:13.660Z,8.10
2023-01-11T05:24:42.389Z,6.57
2023-01-11T05:27:11.137Z,6.60
2023-01-11T05:29:41.468Z,6.97
2023-01-11T05:32:12.444Z,6.85
2023-01-11T05:34:41.389Z,8.57
2023-01-11T05:37:10.061Z,6.57
2023-01-11T05:39:38.913Z,10.20
2023-01-11T05:42:07.674Z,7.97
2023-01-11T05:44:53.525Z,6.88
2023-01-11T05:47:27.049Z,6.22
2023-01-11T05:49:56.253Z,8.45
2023-01-11T05:52:24.749Z,6.68
2023-01-11T05:54:53.707Z,9.75
2023-01-11T05:57:22.479Z,6.45
2023-01-11T05:59:51.217Z,6.47
2023-01-11T06:02:20.049Z,6.97
2023-01-11T06:04:50.347Z,7.45
2023-01-11T06:07:19.164Z,8.43
2023-01-11T06:09:47.981Z,7.65
2023-01-11T06:12:16.896Z,6.13
2023-01-11T06:14:45.981Z,9.25
2023-01-11T06:17:14.858Z,9.20
2023-01-11T06:19:44.549Z,8.00
2023-01-11T06:22:14.873Z,9.75
2023-01-11T06:24:43.848Z,10.23
2023-01-11T06:27:12.792Z,9.88
2023-01-11T06:29:41.619Z,12.15
2023-01-11T06:32:10.260Z,8.68
2023-01-11T06:34:39.327Z,10.35
2023-01-11T06:37:07.942Z,10.70
2023-01-11T06:39:38.223Z,10.25
2023-01-11T06:42:06.926Z,11.05
2023-01-11T06:44:36.293Z,13.18
2023-01-11T06:47:05.003Z,13.68
2023-01-11T06:49:33.854Z,15.75
2023-01-11T06:52:02.734Z,14.00
2023-01-11T06:54:31.584Z,12.15
2023-01-11T06:57:02.114Z,11.07
2023-01-11T06:59:31.283Z,13.85
2023-01-11T07:02:00.874Z,14.25
2023-01-11T07:04:32.966Z,12.75
2023-01-11T07:07:02.411Z,13.30
2023-01-11T07:09:31.608Z,12.38
2023-01-11T07:12:02.071Z,11.77
2023-01-11T07:14:30.881Z,13.05
2023-01-11T07:17:00.061Z,14.52
2023-01-11T07:19:29.226Z,15.23
2023-01-11T07:21:58.083Z,14.65
2023-01-11T07:24:26.868Z,12.88
2023-01-11T07:26:56.473Z,16.15
2023-01-11T07:29:27.159Z,16.52
2023-01-11T07:31:56.169Z,14.80
2023-01-11T07:34:26.183Z,16.27
2023-01-11T07:36:55.033Z,16.60
2023-01-11T07:39:34.838Z,16.63
2023-01-11T07:42:30.090Z,15.63
2023-01-11T07:45:00.407Z,15.13
2023-01-11T07:47:29.433Z,16.63
2023-01-11T07:49:58.368Z,16.15
2023-01-11T07:52:27.159Z,16.17
2023-01-11T07:54:56.048Z,14.55
2023-01-11T07:57:24.784Z,16.63
2023-01-11T07:59:53.587Z,14.57
2023-01-11T08:02:23.898Z,19.50
2023-01-11T08:04:52.844Z,16.33
2023-01-11T08:07:21.708Z,18.15
2023-01-11T08:09:50.533Z,19.13
2023-01-11T08:12:36.671Z,16.17
2023-01-11T08:15:06.447Z,15.55
2023-01-11T08:17:36.887Z,19.67
2023-01-11T08:20:06.270Z,18.13
2023-01-11T08:22:35.534Z,18.90
2023-01-11T08:25:04.387Z,18.23
2023-01-11T08:27:33.172Z,18.65
2023-01-11T08:30:02.066Z,21.30
2023-01-11T08:32:30.773Z,20.63
2023-01-11T08:35:01.106Z,22.58
2023-01-11T08:37:30.016Z,15.93
2023-01-11T08:39:58.971Z,18.98
2023-01-11T08:42:27.847Z,20.13
2023-01-11T08:44:56.684Z,20.60
2023-01-11T08:47:25.524Z,19.70
2023-01-11T08:49:54.393Z,16.92
2023-01-11T08:52:24.547Z,16.50
2023-01-11T08:54:53.203Z,23.02
2023-01-11T08:57:22.405Z,20.05
2023-01-11T08:59:51.358Z,18.70
2023-01-11T09:02:20.285Z,17.77
2023-01-11T09:04:48.929Z,19.27
2023-01-11T09:07:17.585Z,19.85
2023-01-11T09:09:47.925Z,18.65
2023-01-11T09:12:16.694Z,18.60
2023-01-11T09:14:45.704Z,17.50
2023-01-11T09:17:14.552Z,19.48
2023-01-11T09:19:43.372Z,21.08
2023-01-11T09:22:12.201Z,18.23
2023-01-11T09:24:40.973Z,18.45
2023-01-11T09:27:11.986Z,18.10
2023-01-11T09:29:40.981Z,19.88
2023-01-11T09:32:09.752Z,18.77
2023-01-11T09:34:39.429Z,17.65
2023-01-11T09:37:08.265Z,18.08
2023-01-11T09:39:37.396Z,18.50
2023-01-11T09:42:29.586Z,19.98
2023-01-11T09:45:03.403Z,17.80
2023-01-11T09:47:36.929Z,15.07
2023-01-11T09:50:13.142Z,17.88
2023-01-11T09:52:46.531Z,15.10
2023-01-11T09:55:23.207Z,16.38
2023-01-11T09:58:16.711Z,13.77
2023-01-11T10:00:54.220Z,15.80
2023-01-11T10:04:13.227Z,14.50
2023-01-11T10:06:53.129Z,16.08
2023-01-11T10:18:41.722Z,15.38
2023-01-11T10:19:12.311Z,13.30
2023-01-11T10:21:44.573Z,14.13
2023-01-11T10:24:21.106Z,14.13
2023-01-11T10:26:57.004Z,14.55
2023-01-11T10:29:50.298Z,16.15
2023-01-11T10:32:40.966Z,16.50
2023-01-11T10:35:30.146Z,18.80
2023-01-11T10:38:23.492Z,14.25
2023-01-11T10:41:16.364Z,14.65
2023-01-11T10:43:49.322Z,12.43
2023-01-11T10:46:21.580Z,14.80
2023-01-11T10:49:09.879Z,14.20
2023-01-11T10:51:44.590Z,15.95
2023-01-11T10:54:16.945Z,16.95
2023-01-11T10:57:04.725Z,16.85
2023-01-11T10:59:53.196Z,16.70
2023-01-11T11:02:36.562Z,18.55
2023-01-11T11:05:20.992Z,15.05
2023-01-11T11:07:57.689Z,19.42
2023-01-11T11:10:33.913Z,19.38
2023-01-11T11:13:14.007Z,19.83
2023-01-11T11:15:50.794Z,16.23
2023-01-11T11:18:19.673Z,15.02
2023-01-11T11:20:49.901Z,16.67
2023-01-11T11:23:25.215Z,17.20
2023-01-11T11:26:00.133Z,15.90
2023-01-11T11:28:31.202Z,15.45
2023-01-11T11:33:36.435Z,17.83
2023-01-11T11:36:09.083Z,17.60
2023-01-11T11:38:39.978Z,16.95
2023-01-11T11:41:10.526Z,15.48
2023-01-11T11:43:40.798Z,19.58
2023-01-11T11:46:25.182Z,16.83
2023-01-11T11:49:13.675Z,15.90
2023-01-11T11:51:45.323Z,17.33
2023-01-11T11:54:22.713Z,18.35
2023-01-11T11:56:52.069Z,17.63
2023-01-11T11:59:23.913Z,16.30
2023-01-11T12:02:01.389Z,18.23
2023-01-11T12:04:48.110Z,18.08
2023-01-11T12:07:21.384Z,20.75
2023-01-11T12:09:52.366Z,19.60
2023-01-11T12:12:27.358Z,17.17
2023-01-11T12:15:23.291Z,21.33
2023-01-11T12:17:52.677Z,20.65
2023-01-11T12:20:44.953Z,18.52
2023-01-11T12:23:21.825Z,19.15
2023-01-11T12:26:13.825Z,20.90
2023-01-11T12:29:15.722Z,18.30
2023-01-11T12:31:57.205Z,21.88
2023-01-11T12:34:40.083Z,20.60
2023-01-11T12:37:18.350Z,21.40
2023-01-11T12:39:56.769Z,22.77
2023-01-11T12:43:06.352Z,22.48
2023-01-11T12:45:46.402Z,21.55
2023-01-11T12:48:46.741Z,19.83
2023-01-11T12:51:25.594Z,16.63
2023-01-11T12:54:06.593Z,19.67
2023-01-11T12:57:00.251Z,20.08
2023-01-11T12:59:44.827Z,21.33
2023-01-11T13:02:32.907Z,23.15
2023-01-11T13:05:14.549Z,16.75
2023-01-11T13:08:01.106Z,20.38
2023-01-11T13:10:41.491Z,20.70
2023-01-11T13:13:16.707Z,21.38
2023-01-11T13:15:54.323Z,19.15
2023-01-11T13:18:31.669Z,21.00
2023-01-11T13:21:08.712Z,21.98
2023-01-11T13:24:05.631Z,18.73
2023-01-11T13:26:38.835Z,20.73
2023-01-11T13:29:16.274Z,21.42
2023-01-11T13:31:48.163Z,20.63
2023-01-11T13:34:24.419Z,19.48
2023-01-11T13:36:59.253Z,21.98
2023-01-11T13:39:34.243Z,17.52
2023-01-11T13:42:11.267Z,17.58
2023-01-11T13:44:47.931Z,20.85
2023-01-11T13:47:20.841Z,21.75
2023-01-11T13:50:00.284Z,17.95
2023-01-11T13:52:45.793Z,19.70
2023-01-11T13:55:25.948Z,18.35
2023-01-11T13:58:01.786Z,17.42
2023-01-11T14:00:37.715Z,17.23
2023-01-11T14:03:18.066Z,20.55
2023-01-11T14:05:54.280Z,16.27
2023-01-11T14:08:50.628Z,16.52
2023-01-11T14:11:27.405Z,17.00
2023-01-11T14:14:23.613Z,17.48
2023-01-11T14:17:36.747Z,17.27
2023-01-11T14:20:14.516Z,17.67
2023-01-11T14:22:51.513Z,17.35
2023-01-11T14:25:26.116Z,18.05
2023-01-11T14:28:22.323Z,17.77
2023-01-11T14:31:12.305Z,15.07
2023-01-11T14:34:11.222Z,13.70
2023-01-11T14:37:15.512Z,16.48
2023-01-11T14:40:01.351Z,17.88
2023-01-11T14:43:19.061Z,18.92
2023-01-11T14:46:05.476Z,16.98
2023-01-11T14:48:44.313Z,17.75
2023-01-11T14:51:34.295Z,16.63
2023-01-11T14:54:09.504Z,16.38
2023-01-11T14:56:55.973Z,16.80
2023-01-11T14:59:40.000Z,16.95
2023-01-11T15:02:16.425Z,16.98
2023-01-11T15:05:05.344Z,23.25
2023-01-11T15:07:41.839Z,16.67
2023-01-11T15:10:45.995Z,16.42
2023-01-11T15:13:19.860Z,14.43
2023-01-11T15:16:06.060Z,17.88
2023-01-11T15:18:45.952Z,16.42
2023-01-11T15:21:19.634Z,14.25
2023-01-11T15:23:52.211Z,18.20
2023-01-11T15:26:22.532Z,17.48
2023-01-11T15:28:53.353Z,14.88
2023-01-11T15:31:34.581Z,17.63
2023-01-11T15:34:07.265Z,17.45
2023-01-11T15:37:00.149Z,17.35
2023-01-11T15:39:40.537Z,17.00
2023-01-11T15:42:38.099Z,15.55
2023-01-11T15:46:16.018Z,16.05
2023-01-11T15:49:12.632Z,16.58
2023-01-11T15:52:07.034Z,19.45
2023-01-11T15:54:56.215Z,17.73
2023-01-11T15:57:55.794Z,18.20
2023-01-11T16:01:06.416Z,15.60
2023-01-11T16:04:03.718Z,16.70
2023-01-11T16:06:43.038Z,16.13
2023-01-11T16:09:35.280Z,16.10
2023-01-11T16:12:25.525Z,17.73
2023-01-11T16:15:33.852Z,20.35
2023-01-11T16:18:13.339Z,15.38
2023-01-11T16:20:46.091Z,19.00
2023-01-11T16:23:22.830Z,17.75
2023-01-11T16:25:57.667Z,19.02
2023-01-11T16:28:29.154Z,18.20
2023-01-11T16:31:02.367Z,17.38
2023-01-11T16:33:35.593Z,18.05
2023-01-11T16:36:09.242Z,16.27
2023-01-11T16:38:47.394Z,19.35
2023-01-11T16:41:18.188Z,22.08
2023-01-11T16:43:55.687Z,21.08
2023-01-11T16:47:00.429Z,18.20
2023-01-11T16:49:29.247Z,16.15
2023-01-11T16:52:00.743Z,19.95
2023-01-11T16:54:33.872Z,19.58
2023-01-11T16:57:04.018Z,18.20
2023-01-11T16:59:35.834Z,19.75
2023-01-11T17:02:25.360Z,17.90
2023-01-11T17:04:56.501Z,23.05
2023-01-11T17:07:28.209Z,16.98
2023-01-11T17:10:17.681Z,26.42
2023-01-11T17:12:50.449Z,19.65
2023-01-11T17:15:33.615Z,19.55
2023-01-11T17:18:13.752Z,16.85
2023-01-11T17:20:42.797Z,17.85
2023-01-11T17:23:16.558Z,16.95
2023-01-11T17:25:45.450Z,22.90
2023-01-11T17:28:19.582Z,20.27
2023-01-11T17:30:53.766Z,19.15
2023-01-11T17:33:34.614Z,19.88
2023-01-11T17:36:04.268Z,19.48
2023-01-11T17:38:33.254Z,20.13
2023-01-11T17:41:22.996Z,19.15
2023-01-11T17:44:08.992Z,21.45
2023-01-11T17:46:41.720Z,20.08
2023-01-11T17:49:22.491Z,21.52
2023-01-11T17:51:51.543Z,19.27
2023-01-11T17:54:21.701Z,23.27
2023-01-11T17:56:57.440Z,18.07
2023-01-11T17:59:28.017Z,19.77
2023-01-11T18:01:59.865Z,20.55
2023-01-11T18:04:29.538Z,21.27
2023-01-11T18:07:07.358Z,19.50
2023-01-11T18:09:41.615Z,20.08
2023-01-11T18:12:15.584Z,22.08
2023-01-11T18:14:50.488Z,20.65
2023-01-11T18:17:36.330Z,24.25
2023-01-11T18:20:38.931Z,18.75
2023-01-11T18:23:23.365Z,19.55
2023-01-11T18:26:12.144Z,20.17
2023-01-11T18:28:40.793Z,21.60
2023-01-11T18:31:09.401Z,18.75
2023-01-11T18:33:42.013Z,22.20
2023-01-11T18:36:20.740Z,22.48
2023-01-11T18:38:49.413Z,19.67
2023-01-11T18:41:44.919Z,22.83
2023-01-11T18:44:14.164Z,18.17
2023-01-11T18:46:42.938Z,20.63
2023-01-11T18:49:13.166Z,19.70
2023-01-11T18:51:42.004Z,19.33
2023-01-11T18:54:18.048Z,21.52
2023-01-11T18:56:47.730Z,20.75
2023-01-11T18:59:16.438Z,20.52
2023-01-11T19:01:56.633Z,21.92
2023-01-11T19:04:35.746Z,18.45
2023-01-11T19:07:04.822Z,19.02
2023-01-11T19:09:33.455Z,20.05
2023-01-11T19:12:02.336Z,17.98
2023-01-11T19:14:30.995Z,19.25
2023-01-11T19:16:59.814Z,19.20
2023-01-11T19:22:00.686Z,20.98
2023-01-11T19:24:29.652Z,18.73
2023-01-11T19:26:58.452Z,19.48
2023-01-11T19:29:27.498Z,18.23
2023-01-11T19:32:04.235Z,21.85
2023-01-11T19:34:35.193Z,21.38
2023-01-11T19:37:05.458Z,21.90
2023-01-11T19:39:34.773Z,21.45
2023-01-11T19:42:03.438Z,19.83
2023-01-11T19:44:33.737Z,22.75
2023-01-11T19:47:11.237Z,19.85
2023-01-11T19:49:41.570Z,21.98
2023-01-11T19:52:14.308Z,19.48
2023-01-11T19:54:43.614Z,19.48
2023-01-11T19:57:20.869Z,22.05
2023-01-11T19:59:50.845Z,18.58
2023-01-11T20:02:23.219Z,19.08
2023-01-11T20:04:52.004Z,20.02
2023-01-11T20:07:22.314Z,18.40
2023-01-11T20:09:50.951Z,19.27
2023-01-11T20:12:19.655Z,19.63
2023-01-11T20:14:48.352Z,22.98
2023-01-11T20:17:21.137Z,20.27
2023-01-11T20:19:54.710Z,21.48
2023-01-11T20:22:26.052Z,23.92
2023-01-11T20:24:57.575Z,22.52
2023-01-11T20:27:26.260Z,20.23
2023-01-11T20:29:55.076Z,28.85
2023-01-11T20:32:42.157Z,22.40
2023-01-11T20:35:12.237Z,22.90
2023-01-11T20:37:45.541Z,20.65
2023-01-11T20:40:14.796Z,21.67
2023-01-11T20:42:43.706Z,20.25
2023-01-11T20:45:13.082Z,24.33
2023-01-11T20:47:41.860Z,23.90
2023-01-11T20:50:14.239Z,22.83
2023-01-11T20:52:44.956Z,22.75
2023-01-11T20:55:13.815Z,23.70
2023-01-11T20:57:42.770Z,23.35
2023-01-11T21:00:13.967Z,21.95
2023-01-11T21:02:42.708Z,21.92
2023-01-11T21:05:21.805Z,21.55
2023-01-11T21:07:54.204Z,27.63
2023-01-11T21:10:22.786Z,24.50
2023-01-11T21:12:52.907Z,21.02
2023-01-11T21:15:21.823Z,27.88
2023-01-11T21:17:50.536Z,21.80
2023-01-11T21:20:19.401Z,21.27
2023-01-11T21:22:48.063Z,19.95
2023-01-11T21:25:18.697Z,20.98
2023-01-11T21:27:47.385Z,24.65
2023-01-11T21:30:16.405Z,20.63
2023-01-11T21:32:45.083Z,18.67
2023-01-11T21:35:14.066Z,22.05
2023-01-11T21:37:42.716Z,21.90
2023-01-11T21:40:14.333Z,20.17
2023-01-11T21:42:44.966Z,19.05
2023-01-11T21:45:13.844Z,22.23
2023-01-11T21:47:45.598Z,20.63
2023-01-11T21:50:14.385Z,18.70
2023-01-11T21:52:43.090Z,17.70
2023-01-11T21:55:12.583Z,22.60
2023-01-11T21:57:41.143Z,23.02
2023-01-11T22:00:14.885Z,17.05
2023-01-11T22:02:43.589Z,21.45
2023-01-11T22:05:12.307Z,18.48
2023-01-11T22:07:43.707Z,18.00
2023-01-11T22:10:13.146Z,18.67
2023-01-11T22:12:41.863Z,22.42
2023-01-11T22:15:12.717Z,19.23
2023-01-11T22:17:41.523Z,20.95
2023-01-11T22:20:11.628Z,20.83
2023-01-11T22:22:40.426Z,20.03
2023-01-11T22:25:09.784Z,19.00
2023-01-11T22:27:38.585Z,19.77
2023-01-11T22:30:08.529Z,22.75
2023-01-11T22:32:38.914Z,19.15
2023-01-11T22:35:08.558Z,18.63
2023-01-11T22:37:37.350Z,24.65
2023-01-11T22:40:06.766Z,24.65
2023-01-11T22:42:35.341Z,24.70
2023-01-11T22:45:05.258Z,18.30
2023-01-11T22:47:34.089Z,21.98
2023-01-11T22:50:04.506Z,21.40
2023-01-11T22:52:33.567Z,20.35
2023-01-11T22:55:02.108Z,21.55
2023-01-11T22:57:30.828Z,22.98
2023-01-11T22:59:59.406Z,21.20
2023-01-11T23:02:28.167Z,26.67
2023-01-11T23:04:56.883Z,20.38
2023-01-11T23:07:26.918Z,23.88
2023-01-11T23:09:55.487Z,22.98
2023-01-11T23:12:41.348Z,23.05
2023-01-11T23:15:11.274Z,21.13
2023-01-11T23:17:39.803Z,22.67
2023-01-11T23:20:09.405Z,25.85
2023-01-11T23:22:39.449Z,25.23
2023-01-11T23:25:09.314Z,27.13
2023-01-11T23:27:37.799Z,24.05
2023-01-11T23:30:07.466Z,24.88
2023-01-11T23:32:36.066Z,22.90
2023-01-11T23:35:05.558Z,23.83
2023-01-11T23:37:34.121Z,23.30
2023-01-11T23:40:04.282Z,21.40
2023-01-11T23:42:31.911Z,23.33
2023-01-11T23:45:00.489Z,22.67
2023-01-11T23:47:29.977Z,22.05
2023-01-11T23:50:00.615Z,25.75
2023-01-11T23:52:31.233Z,21.90
2023-01-11T23:55:00.774Z,23.70
2023-01-11T23:57:30.974Z,23.35
2023-01-11T23:59:59.700Z,20.07
